West Lancaster, Pennsylvania
Current Conditions -  °F | °C
As of 8:53 PM on Saturday 22 Nov 2014 (Local Time) from KLNS Reporting Station
Overcast Overcast  
Wind Chill: 35°   Ceiling: 11000
Heat Index: 35°   Visibility: 10mi
Dew Point: 24°   Wind: 0mph
Humidity: 64%   Direction: NA
Pressure: 30.24"   Gusts: NA
Location:  40.0115°N, 76.3553°W
Report Text: KLNS 230153Z AUTO 00000KT 10SM OVC110 02/M04 A3024 RMK AO2 SLP243 T00171044
Loading
Personal Weather Stations






























Interactive Weather Map New forecast layout! Learn more

10-Day Weather Forecast

Advertisements
Track Severe Weather on mobile